Time;durP1;ratioP1;P1;durP2;ratioP2;P2;SDS_P1;SDS_P2;PMS_P1;PMS_P2;Temp;Humidity;BMP_temperature;BMP_pressure;BME280_temperature;BME280_humidity;BME280_pressure;Samples;Min_cycle;Max_cycle;Signal;HPM_P1;HPM_P2
2023/06/05 00:01:35;;;;;;;11.07;10.47;;;11.10;95.40;;;;;;5059681;28;20419;-42
2023/06/05 00:04:01;;;;;;;11.17;10.53;;;11.10;95.50;;;;;;5059945;28;20264;-41
2023/06/05 00:06:26;;;;;;;10.90;10.40;;;11.10;95.60;;;;;;5059035;28;20470;-42
2023/06/05 00:08:52;;;;;;;11.00;10.40;;;11.00;95.80;;;;;;5059774;28;21004;-42
2023/06/05 00:11:18;;;;;;;11.20;10.50;;;11.00;95.80;;;;;;5059097;28;20268;-41
2023/06/05 00:13:43;;;;;;;11.00;10.40;;;11.00;96.00;;;;;;5059464;28;20639;-43
2023/06/05 00:16:09;;;;;;;10.83;10.13;;;10.90;96.10;;;;;;5058555;28;20185;-41
2023/06/05 00:18:34;;;;;;;10.57;10.07;;;10.90;96.60;;;;;;5058830;28;20209;-42
2023/06/05 00:21:00;;;;;;;11.10;10.50;;;10.80;97.00;;;;;;5059881;28;20177;-42
2023/06/05 00:23:26;;;;;;;10.93;10.43;;;10.80;97.30;;;;;;5059928;28;20731;-42
2023/06/05 00:25:51;;;;;;;11.07;10.53;;;10.80;97.60;;;;;;5040815;28;20211;-43
2023/06/05 00:28:17;;;;;;;10.70;10.20;;;10.70;97.80;;;;;;5059038;28;20281;-41
2023/06/05 00:30:43;;;;;;;11.47;10.77;;;10.70;98.10;;;;;;5059824;28;20189;-41
2023/06/05 00:33:08;;;;;;;10.93;10.43;;;10.70;98.30;;;;;;5058892;28;20423;-41
2023/06/05 00:35:34;;;;;;;11.43;10.83;;;10.70;98.30;;;;;;5059688;28;20658;-41
2023/06/05 00:38:00;;;;;;;10.77;10.27;;;10.70;98.50;;;;;;5057977;28;20453;-41
2023/06/05 00:40:25;;;;;;;11.50;10.80;;;10.70;98.90;;;;;;5060050;28;20189;-42
2023/06/05 00:42:51;;;;;;;10.83;10.20;;;10.70;99.30;;;;;;5059235;28;20185;-42
2023/06/05 00:45:17;;;;;;;11.33;10.80;;;10.60;99.30;;;;;;5060266;28;20180;-42
2023/06/05 00:47:42;;;;;;;11.00;10.50;;;10.60;99.30;;;;;;5059600;28;20264;-43
2023/06/05 00:50:11;;;;;;;11.03;10.53;;;10.60;99.50;;;;;;5057849;28;20219;-42
2023/06/05 00:52:38;;;;;;;11.07;10.37;;;10.60;99.90;;;;;;5059734;28;20877;-44
2023/06/05 00:55:04;;;;;;;11.67;10.97;;;10.60;99.90;;;;;;5059599;28;20515;-43
2023/06/05 00:57:30;;;;;;;10.63;10.13;;;10.60;99.90;;;;;;5058805;28;20466;-44
2023/06/05 00:59:55;;;;;;;10.60;10.10;;;10.50;99.90;;;;;;5059534;28;20983;-45
2023/06/05 01:02:21;;;;;;;11.20;10.60;;;10.50;99.90;;;;;;5058830;28;20263;-43
2023/06/05 01:04:46;;;;;;;11.07;10.47;;;10.50;99.90;;;;;;5058773;28;20185;-42
2023/06/05 01:07:16;;;;;;;11.00;10.50;;;10.40;99.90;;;;;;5057721;28;20181;-43
2023/06/05 01:09:44;;;;;;;11.10;10.50;;;10.40;99.90;;;;;;5059002;28;20918;-46
2023/06/05 01:12:32;;;;;;;11.90;11.30;;;10.40;99.90;;;;;;5059156;28;20419;-42
2023/06/05 01:15:01;;;;;;;11.30;10.80;;;10.40;99.90;;;;;;5059191;28;20422;-43
2023/06/05 01:17:28;;;;;;;11.53;10.93;;;10.30;99.90;;;;;;5058804;28;20498;-43
2023/06/05 01:19:55;;;;;;;11.70;11.00;;;10.30;99.90;;;;;;5058674;28;20463;-42
2023/06/05 01:22:21;;;;;;;11.10;10.40;;;10.20;99.90;;;;;;5058415;28;20462;-56
2023/06/05 01:24:47;;;;;;;11.57;10.80;;;10.10;99.90;;;;;;5058778;28;20589;-59
2023/06/05 01:27:29;;;;;;;11.40;10.50;;;10.10;99.90;;;;;;5058616;28;20461;-57
2023/06/05 01:30:10;;;;;;;10.20;9.70;;;10.10;99.90;;;;;;5059101;28;20438;-58
2023/06/05 01:33:02;;;;;;;11.40;10.80;;;10.10;99.90;;;;;;5058426;28;20427;-58
2023/06/05 01:35:32;;;;;;;10.90;10.40;;;10.00;99.90;;;;;;5058932;28;20470;-58
2023/06/05 01:37:59;;;;;;;11.00;10.50;;;10.00;99.90;;;;;;5057189;28;20534;-59
2023/06/05 01:40:26;;;;;;;11.03;10.50;;;10.00;99.90;;;;;;5058648;28;20438;-58
2023/06/05 01:42:54;;;;;;;11.43;10.73;;;9.90;99.90;;;;;;5058170;28;20412;-54
2023/06/05 01:45:20;;;;;;;11.20;10.60;;;9.90;99.90;;;;;;5057676;28;20457;-55
2023/06/05 01:47:49;;;;;;;11.47;10.87;;;9.90;99.90;;;;;;5059550;28;20426;-59
2023/06/05 01:50:16;;;;;;;10.87;10.37;;;9.90;99.90;;;;;;5062642;28;20185;-59
2023/06/05 01:52:44;;;;;;;11.67;11.07;;;9.90;99.90;;;;;;5062962;28;20787;-57
2023/06/05 01:55:16;;;;;;;11.60;11.00;;;9.80;99.90;;;;;;5062453;28;20423;-47
2023/06/05 01:57:42;;;;;;;10.77;10.27;;;9.80;99.90;;;;;;5061514;28;20462;-60
2023/06/05 02:00:12;;;;;;;10.73;10.23;;;9.80;99.90;;;;;;5062275;28;20851;-58
2023/06/05 02:02:47;;;;;;;10.60;10.10;;;9.80;99.90;;;;;;5061231;28;21063;-59
2023/06/05 02:05:14;;;;;;;10.20;9.70;;;9.80;99.90;;;;;;5061715;28;20426;-50
2023/06/05 02:07:41;;;;;;;10.93;10.43;;;9.80;99.90;;;;;;5041957;28;20454;-54
2023/06/05 02:10:08;;;;;;;11.87;11.17;;;9.70;99.90;;;;;;5061710;28;20446;-58
2023/06/05 02:12:37;;;;;;;10.70;10.20;;;9.60;99.90;;;;;;5062525;28;20427;-51
2023/06/05 02:15:03;;;;;;;11.27;10.67;;;9.60;99.90;;;;;;5062326;28;20476;-53
2023/06/05 02:17:29;;;;;;;11.33;10.73;;;9.60;99.90;;;;;;5061995;28;20559;-46
2023/06/05 02:19:55;;;;;;;11.13;10.53;;;9.60;99.90;;;;;;5061635;28;20782;-57
2023/06/05 02:22:23;;;;;;;10.47;10.00;;;9.50;99.90;;;;;;5062279;28;20784;-59
2023/06/05 02:24:51;;;;;;;11.60;10.97;;;9.50;99.90;;;;;;5061533;28;20514;-57
2023/06/05 02:27:17;;;;;;;10.83;10.23;;;9.50;99.90;;;;;;5062023;28;20433;-58
2023/06/05 02:29:43;;;;;;;11.00;10.50;;;9.40;99.90;;;;;;5060804;28;20434;-57
2023/06/05 02:32:09;;;;;;;11.23;10.67;;;9.40;99.90;;;;;;5061947;28;20421;-50
2023/06/05 02:34:35;;;;;;;11.60;10.97;;;9.40;99.90;;;;;;5061226;28;20730;-59
2023/06/05 02:37:02;;;;;;;11.30;10.70;;;9.40;99.90;;;;;;5061732;28;20423;-59
2023/06/05 02:39:30;;;;;;;11.47;10.73;;;9.40;99.90;;;;;;5061774;28;20406;-59
2023/06/05 02:41:56;;;;;;;11.00;10.50;;;9.40;99.90;;;;;;5061134;28;20422;-59
2023/06/05 02:44:22;;;;;;;10.37;9.87;;;9.30;99.90;;;;;;5061064;28;20435;-57
2023/06/05 02:46:48;;;;;;;11.30;10.60;;;9.30;99.90;;;;;;5061031;28;20801;-55
2023/06/05 02:49:13;;;;;;;10.47;9.97;;;9.40;99.90;;;;;;5059634;28;20181;-50
2023/06/05 02:51:39;;;;;;;11.77;11.03;;;9.40;99.90;;;;;;5060736;28;20211;-59
2023/06/05 02:54:04;;;;;;;11.47;10.87;;;9.30;99.90;;;;;;5061694;28;20481;-58
2023/06/05 02:56:30;;;;;;;11.00;10.40;;;9.30;99.90;;;;;;5061681;28;20194;-59
2023/06/05 02:58:56;;;;;;;10.53;10.03;;;9.30;99.90;;;;;;5059201;28;20674;-59
2023/06/05 03:01:22;;;;;;;11.20;10.60;;;9.20;99.90;;;;;;5061074;28;20222;-60
2023/06/05 03:03:48;;;;;;;10.87;10.20;;;9.20;99.90;;;;;;5061084;28;20438;-57
2023/06/05 03:06:17;;;;;;;9.63;9.13;;;9.20;99.90;;;;;;5042748;28;20445;-58
2023/06/05 03:08:43;;;;;;;10.90;10.30;;;9.20;99.90;;;;;;5061134;28;20441;-53
2023/06/05 03:11:10;;;;;;;10.33;9.83;;;9.30;99.90;;;;;;5061136;28;21522;-59
2023/06/05 03:13:35;;;;;;;10.03;9.53;;;9.20;99.90;;;;;;5061150;28;21085;-59
2023/06/05 03:16:01;;;;;;;10.23;9.63;;;9.20;99.90;;;;;;5061089;28;20427;-57
2023/06/05 03:18:30;;;;;;;10.00;9.50;;;9.20;99.90;;;;;;5060728;28;20226;-58
2023/06/05 03:20:56;;;;;;;10.30;9.80;;;9.20;99.90;;;;;;5060991;28;20437;-58
2023/06/05 03:23:27;;;;;;;10.53;9.93;;;9.20;99.90;;;;;;5060241;28;20784;-53
2023/06/05 03:25:53;;;;;;;9.97;9.47;;;9.30;99.90;;;;;;5060416;28;20203;-56
2023/06/05 03:28:19;;;;;;;10.17;9.67;;;9.30;99.90;;;;;;5061083;28;20877;-60
2023/06/05 03:30:45;;;;;;;10.20;9.60;;;9.30;99.90;;;;;;5058734;28;20662;-57
2023/06/05 03:33:11;;;;;;;9.90;9.40;;;9.30;99.90;;;;;;5060530;28;20415;-48
2023/06/05 03:35:36;;;;;;;10.60;10.00;;;9.30;99.90;;;;;;5060262;28;20499;-48
2023/06/05 03:38:02;;;;;;;10.90;10.30;;;9.40;99.90;;;;;;5060305;28;20243;-58
2023/06/05 03:40:28;;;;;;;10.40;9.90;;;9.40;99.90;;;;;;5060150;28;20183;-60
2023/06/05 03:42:54;;;;;;;10.10;9.60;;;9.40;99.90;;;;;;5060509;28;20416;-58
2023/06/05 03:45:20;;;;;;;10.23;9.63;;;9.40;99.90;;;;;;5060450;28;20950;-49
2023/06/05 03:47:48;;;;;;;10.23;9.70;;;9.40;99.90;;;;;;5060252;28;20197;-57
2023/06/05 03:50:15;;;;;;;10.07;9.53;;;9.40;99.90;;;;;;5060736;28;20192;-57
2023/06/05 03:52:40;;;;;;;11.17;10.50;;;9.40;99.90;;;;;;5059557;28;20414;-59
2023/06/05 03:55:10;;;;;;;10.93;10.43;;;9.40;99.90;;;;;;5058471;28;20986;-58
2023/06/05 03:57:37;;;;;;;10.97;10.40;;;9.50;99.90;;;;;;5060252;28;20511;-58
2023/06/05 04:00:10;;;;;;;10.90;10.30;;;9.50;99.90;;;;;;5060123;28;20493;-57
2023/06/05 04:02:36;;;;;;;10.23;9.70;;;9.50;99.90;;;;;;5059185;28;20435;-56
2023/06/05 04:05:03;;;;;;;10.40;9.90;;;9.50;99.90;;;;;;5059469;28;20462;-58
2023/06/05 04:07:29;;;;;;;10.60;10.10;;;9.50;99.90;;;;;;5060092;28;20412;-54
2023/06/05 04:09:55;;;;;;;10.03;9.50;;;9.60;99.90;;;;;;5059919;28;20924;-60
2023/06/05 04:12:21;;;;;;;10.67;10.17;;;9.60;99.90;;;;;;5059192;28;20469;-59
2023/06/05 04:14:47;;;;;;;10.43;9.93;;;9.70;99.90;;;;;;5059941;28;20498;-53
2023/06/05 04:17:13;;;;;;;10.93;10.23;;;9.80;99.90;;;;;;5059679;28;20208;-56
2023/06/05 04:19:40;;;;;;;9.80;9.23;;;9.80;99.90;;;;;;5060001;28;20787;-57
2023/06/05 04:22:06;;;;;;;10.97;10.37;;;10.00;99.90;;;;;;5058682;28;20462;-58
2023/06/05 04:24:31;;;;;;;10.37;9.77;;;10.10;99.90;;;;;;5058612;28;20970;-56
2023/06/05 04:26:59;;;;;;;10.30;9.80;;;10.20;99.90;;;;;;5059514;28;20403;-49
2023/06/05 04:29:24;;;;;;;10.90;10.10;;;10.20;99.90;;;;;;5059501;28;20639;-58
2023/06/05 04:31:50;;;;;;;9.73;9.13;;;10.30;99.90;;;;;;5059396;28;20503;-57
2023/06/05 04:34:18;;;;;;;10.30;9.80;;;10.40;99.90;;;;;;5059039;28;20185;-57
2023/06/05 04:36:43;;;;;;;10.10;9.50;;;10.40;99.90;;;;;;5059566;28;20403;-49
2023/06/05 04:39:15;;;;;;;10.80;10.20;;;10.40;99.90;;;;;;5059588;28;20882;-56
2023/06/05 04:41:46;;;;;;;10.20;9.70;;;10.40;99.90;;;;;;5059805;28;20485;-58
2023/06/05 04:44:18;;;;;;;11.43;10.77;;;10.40;99.90;;;;;;5059672;28;20423;-49
2023/06/05 04:46:45;;;;;;;11.00;10.40;;;10.50;99.90;;;;;;5058780;28;20427;-59
2023/06/05 04:49:13;;;;;;;10.30;9.80;;;10.50;99.90;;;;;;5059909;28;20419;-58
2023/06/05 04:51:39;;;;;;;11.33;10.73;;;10.60;99.90;;;;;;5058984;28;20510;-60
2023/06/05 04:54:05;;;;;;;11.50;10.80;;;10.70;99.90;;;;;;5057238;28;20526;-58
2023/06/05 04:56:34;;;;;;;10.67;10.10;;;10.80;99.90;;;;;;5057633;28;20763;-49
2023/06/05 04:59:01;;;;;;;11.60;10.90;;;10.80;99.90;;;;;;5059119;28;20216;-58
2023/06/05 05:01:27;;;;;;;9.50;8.90;;;10.90;99.90;;;;;;5058048;28;20438;-59
2023/06/05 05:03:54;;;;;;;10.40;9.90;;;10.90;99.90;;;;;;5057093;28;20423;-56
2023/06/05 05:06:20;;;;;;;11.43;10.77;;;10.90;99.90;;;;;;5057130;28;20639;-56
2023/06/05 05:08:50;;;;;;;11.53;10.90;;;10.90;99.90;;;;;;5057315;28;20431;-58
2023/06/05 05:11:19;;;;;;;11.87;11.07;;;10.90;99.90;;;;;;5040236;28;20434;-57
2023/06/05 05:13:45;;;;;;;11.13;10.50;;;11.00;99.90;;;;;;5058470;28;20513;-58
2023/06/05 05:16:11;;;;;;;11.30;10.70;;;10.90;99.90;;;;;;5058763;28;20969;-59
2023/06/05 05:18:41;;;;;;;10.83;10.30;;;10.90;99.90;;;;;;5058222;28;20285;-57
2023/06/05 05:21:07;;;;;;;11.37;10.77;;;10.90;99.90;;;;;;5057243;28;20189;-56
2023/06/05 05:23:33;;;;;;;12.33;11.63;;;11.00;99.90;;;;;;5060075;28;20843;-59
2023/06/05 05:25:59;;;;;;;11.93;11.23;;;11.20;99.90;;;;;;5062767;28;20841;-52
2023/06/05 05:28:25;;;;;;;11.73;11.13;;;11.30;99.90;;;;;;5064009;28;20573;-58
2023/06/05 05:30:52;;;;;;;11.80;11.20;;;11.30;99.90;;;;;;5062880;28;20523;-59
2023/06/05 05:33:18;;;;;;;12.00;11.30;;;11.30;99.90;;;;;;5062599;28;20423;-59
2023/06/05 05:35:44;;;;;;;11.83;11.23;;;11.50;99.90;;;;;;5062552;28;20431;-57
2023/06/05 05:38:10;;;;;;;11.63;10.93;;;11.60;99.90;;;;;;5061997;28;20960;-59
2023/06/05 05:40:35;;;;;;;12.13;11.53;;;11.70;99.90;;;;;;5062847;28;20712;-57
2023/06/05 05:43:01;;;;;;;12.03;11.27;;;11.80;99.90;;;;;;5044510;28;20784;-47
2023/06/05 05:45:27;;;;;;;10.60;10.00;;;11.80;99.40;;;;;;5062799;28;20177;-59
2023/06/05 05:47:52;;;;;;;11.43;10.73;;;12.00;99.50;;;;;;5062321;28;20185;-52
2023/06/05 05:50:18;;;;;;;11.10;10.50;;;12.20;99.20;;;;;;5062058;28;20188;-54
2023/06/05 05:52:44;;;;;;;10.20;9.70;;;12.30;98.20;;;;;;5061924;28;20228;-58
2023/06/05 05:55:10;;;;;;;11.33;10.80;;;12.40;97.80;;;;;;5062792;28;20189;-59
2023/06/05 05:57:36;;;;;;;11.10;10.50;;;12.50;97.20;;;;;;5060030;28;20477;-58
2023/06/05 06:00:05;;;;;;;11.57;10.97;;;12.60;97.60;;;;;;5060345;28;20439;-56
2023/06/05 06:02:32;;;;;;;12.10;11.50;;;12.70;96.30;;;;;;5060798;28;20635;-59
2023/06/05 06:04:57;;;;;;;11.90;11.10;;;12.80;96.70;;;;;;5061396;28;20518;-58
2023/06/05 06:07:23;;;;;;;12.40;11.60;;;12.90;97.70;;;;;;5060810;28;20431;-56
2023/06/05 06:09:48;;;;;;;11.30;10.80;;;13.00;97.90;;;;;;5061884;28;20211;-59
2023/06/05 06:12:14;;;;;;;11.93;11.27;;;13.10;97.30;;;;;;5061734;28;20211;-59
2023/06/05 06:14:40;;;;;;;12.43;11.73;;;13.20;96.90;;;;;;5061666;28;20647;-59
2023/06/05 06:17:09;;;;;;;12.00;11.30;;;13.30;97.30;;;;;;5061804;28;20200;-54
2023/06/05 06:19:35;;;;;;;12.30;11.60;;;13.50;97.50;;;;;;5062565;28;20201;-59
2023/06/05 06:22:01;;;;;;;11.60;11.00;;;13.50;97.20;;;;;;5062094;28;20596;-55
2023/06/05 06:24:26;;;;;;;12.10;11.47;;;13.60;97.00;;;;;;5061737;28;20538;-59
2023/06/05 06:26:52;;;;;;;12.50;11.80;;;13.70;97.10;;;;;;5061512;28;20181;-56
2023/06/05 06:29:23;;;;;;;11.67;10.87;;;13.90;96.80;;;;;;5061022;28;20216;-52
2023/06/05 06:31:49;;;;;;;12.13;11.50;;;14.00;96.30;;;;;;5062488;28;20181;-58
2023/06/05 06:34:16;;;;;;;12.20;11.50;;;14.20;95.50;;;;;;5061248;28;20423;-54
2023/06/05 06:36:43;;;;;;;12.37;11.67;;;14.30;94.10;;;;;;5044009;28;20435;-56
2023/06/05 06:39:10;;;;;;;11.67;11.10;;;14.50;93.70;;;;;;5061460;28;20470;-56
2023/06/05 06:41:37;;;;;;;11.63;11.03;;;14.70;92.50;;;;;;5061953;28;20426;-54
2023/06/05 06:44:03;;;;;;;12.20;11.60;;;14.90;91.80;;;;;;5061259;28;20931;-56
2023/06/05 06:46:30;;;;;;;11.30;10.70;;;15.20;90.80;;;;;;5059051;28;20545;-58
2023/06/05 06:48:55;;;;;;;12.33;11.53;;;15.40;90.30;;;;;;5060118;28;20988;-57
2023/06/05 06:51:22;;;;;;;10.67;10.17;;;15.60;89.50;;;;;;5061300;28;20441;-57
2023/06/05 06:53:47;;;;;;;12.20;11.50;;;15.80;89.20;;;;;;5060703;28;20176;-57
2023/06/05 06:56:17;;;;;;;11.63;11.00;;;16.10;90.00;;;;;;5061321;28;20937;-55
2023/06/05 06:58:44;;;;;;;11.10;10.50;;;16.30;90.20;;;;;;5043491;28;20467;-52
2023/06/05 07:01:11;;;;;;;11.33;10.73;;;16.40;89.90;;;;;;5061951;28;20415;-60
2023/06/05 07:03:38;;;;;;;12.17;11.57;;;16.50;89.80;;;;;;5061849;28;20534;-45
2023/06/05 07:06:03;;;;;;;12.37;11.67;;;16.60;89.90;;;;;;5060887;28;20423;-49
2023/06/05 07:08:29;;;;;;;11.50;10.90;;;16.80;89.40;;;;;;5061567;28;20830;-45
2023/06/05 07:10:55;;;;;;;10.83;10.33;;;16.80;88.80;;;;;;5061011;28;20420;-44
2023/06/05 07:13:21;;;;;;;12.13;11.43;;;16.90;87.00;;;;;;5061241;28;20204;-43
2023/06/05 07:15:47;;;;;;;11.97;11.37;;;16.90;86.30;;;;;;5060088;28;20435;-42
2023/06/05 07:18:13;;;;;;;11.93;11.40;;;17.00;86.20;;;;;;5060083;28;20992;-44
2023/06/05 07:20:38;;;;;;;11.47;10.77;;;17.10;84.90;;;;;;5060933;28;20476;-47
2023/06/05 07:23:04;;;;;;;11.33;10.53;;;17.10;84.60;;;;;;5060074;28;20225;-44
2023/06/05 07:25:30;;;;;;;11.87;11.30;;;17.30;83.60;;;;;;5060057;28;20181;-47
2023/06/05 07:27:55;;;;;;;11.80;11.20;;;17.30;83.30;;;;;;5060842;28;20189;-43
2023/06/05 07:30:21;;;;;;;12.37;11.70;;;17.40;82.70;;;;;;5058430;28;20181;-49
2023/06/05 07:32:47;;;;;;;11.50;10.80;;;17.60;83.00;;;;;;5059871;28;20243;-44
2023/06/05 07:35:14;;;;;;;12.00;11.40;;;17.70;81.60;;;;;;5060418;28;20424;-44
2023/06/05 07:37:39;;;;;;;12.20;11.50;;;17.90;80.30;;;;;;5060383;28;20193;-45
2023/06/05 07:40:06;;;;;;;11.77;11.10;;;18.20;79.70;;;;;;5059658;28;20782;-46
2023/06/05 07:42:31;;;;;;;11.47;10.83;;;18.30;78.80;;;;;;5060685;28;20209;-50
2023/06/05 07:44:57;;;;;;;12.33;11.73;;;18.50;78.50;;;;;;5060063;28;20610;-43
2023/06/05 07:47:23;;;;;;;12.37;11.57;;;18.70;77.70;;;;;;5060463;28;20192;-45
2023/06/05 07:50:03;;;;;;;11.50;10.80;;;18.90;76.10;;;;;;5060931;28;20181;-44
2023/06/05 07:52:31;;;;;;;12.03;11.37;;;19.10;76.10;;;;;;5059893;28;20427;-45
2023/06/05 07:54:57;;;;;;;11.80;11.10;;;19.20;74.00;;;;;;5059259;28;20808;-48
2023/06/05 07:57:27;;;;;;;12.10;11.50;;;19.30;73.80;;;;;;5060008;28;20490;-45
2023/06/05 07:59:53;;;;;;;11.40;10.80;;;19.50;72.90;;;;;;5042604;28;20419;-43
2023/06/05 08:02:20;;;;;;;12.23;11.53;;;19.70;71.80;;;;;;5060284;28;20427;-47
2023/06/05 08:04:46;;;;;;;12.40;11.60;;;19.90;71.40;;;;;;5060032;28;20415;-42
2023/06/05 08:07:11;;;;;;;12.13;11.10;;;20.10;71.20;;;;;;5060262;28;20419;-42
2023/06/05 08:09:37;;;;;;;11.50;10.90;;;20.40;69.10;;;;;;5059289;28;20530;-43
2023/06/05 08:12:06;;;;;;;12.30;11.60;;;20.60;68.50;;;;;;5041740;28;20431;-43
2023/06/05 08:14:34;;;;;;;12.07;11.47;;;20.80;67.70;;;;;;5059419;28;20245;-42
2023/06/05 08:17:00;;;;;;;11.87;11.27;;;21.00;65.90;;;;;;5058618;28;20446;-42
2023/06/05 08:19:25;;;;;;;10.90;10.40;;;21.20;64.90;;;;;;5059913;28;20530;-42
2023/06/05 08:21:53;;;;;;;12.20;11.50;;;21.40;65.80;;;;;;5059979;28;20428;-44
2023/06/05 08:24:20;;;;;;;11.67;10.97;;;21.70;63.40;;;;;;5057499;28;20304;-48
2023/06/05 08:26:46;;;;;;;12.60;11.90;;;21.90;61.60;;;;;;5041584;28;20443;-42
2023/06/05 08:29:14;;;;;;;10.67;10.17;;;22.00;60.80;;;;;;5059727;28;20429;-42
2023/06/05 08:31:40;;;;;;;11.47;10.80;;;22.20;61.50;;;;;;5059838;28;20188;-42
2023/06/05 08:34:06;;;;;;;11.83;11.07;;;22.40;59.30;;;;;;5059526;28;20779;-41
2023/06/05 08:36:32;;;;;;;11.17;10.63;;;22.60;59.60;;;;;;5059902;28;20792;-43
2023/06/05 08:38:58;;;;;;;11.60;11.00;;;22.80;57.90;;;;;;5059113;28;20200;-46
2023/06/05 08:41:25;;;;;;;12.13;11.50;;;22.90;55.90;;;;;;5059500;28;20668;-43
2023/06/05 08:43:51;;;;;;;11.93;11.20;;;23.20;56.10;;;;;;5059226;28;21224;-42
2023/06/05 08:46:17;;;;;;;12.30;11.60;;;23.40;54.50;;;;;;5059333;28;20850;-44
2023/06/05 08:48:47;;;;;;;11.30;10.80;;;23.60;53.70;;;;;;5058566;28;20427;-44
2023/06/05 08:51:17;;;;;;;11.63;10.93;;;23.90;52.80;;;;;;5059594;28;20433;-42
2023/06/05 08:54:01;;;;;;;11.00;10.40;;;24.10;50.90;;;;;;5057363;28;20512;-44
2023/06/05 08:56:27;;;;;;;11.13;10.53;;;24.40;49.50;;;;;;5059289;28;21006;-42
2023/06/05 08:58:54;;;;;;;11.90;11.30;;;24.40;47.90;;;;;;5057337;28;20562;-45
2023/06/05 09:01:19;;;;;;;11.37;10.87;;;24.50;48.80;;;;;;5059501;28;20478;-43
2023/06/05 09:03:45;;;;;;;11.60;11.00;;;24.70;47.90;;;;;;5058599;28;20631;-42
2023/06/05 09:06:11;;;;;;;11.43;10.83;;;25.10;47.10;;;;;;5058482;28;20196;-44
2023/06/05 09:08:37;;;;;;;11.83;11.23;;;25.40;46.50;;;;;;5059361;28;20516;-46
2023/06/05 09:11:21;;;;;;;10.93;10.40;;;25.60;45.50;;;;;;5059089;28;20185;-44
2023/06/05 09:13:47;;;;;;;11.30;10.63;;;25.90;44.80;;;;;;5059156;28;20985;-44
2023/06/05 09:16:13;;;;;;;11.73;11.23;;;26.30;43.50;;;;;;5059431;28;20423;-45
2023/06/05 09:18:59;;;;;;;11.67;11.07;;;26.70;42.60;;;;;;5059153;28;20525;-45
2023/06/05 09:21:30;;;;;;;11.23;10.73;;;27.20;42.40;;;;;;5058930;28;20237;-47
2023/06/05 09:24:18;;;;;;;11.50;11.00;;;27.60;40.60;;;;;;5058311;28;20991;-45
2023/06/05 09:27:08;;;;;;;12.73;12.13;;;28.20;37.60;;;;;;5041246;28;20945;-44
2023/06/05 09:29:41;;;;;;;13.07;12.27;;;28.60;36.60;;;;;;5057507;28;20816;-43
2023/06/05 09:32:23;;;;;;;11.77;11.17;;;28.80;35.60;;;;;;5058516;28;20439;-45
2023/06/05 09:35:05;;;;;;;12.33;11.73;;;28.70;35.40;;;;;;5059741;28;20418;-47
2023/06/05 09:37:35;;;;;;;13.03;12.27;;;29.00;36.00;;;;;;5058817;28;20459;-47
2023/06/05 09:40:01;;;;;;;13.37;12.67;;;29.40;34.60;;;;;;5059002;28;20620;-44
2023/06/05 09:42:34;;;;;;;12.67;11.97;;;29.90;33.40;;;;;;5057863;28;20441;-45
2023/06/05 09:45:00;;;;;;;13.13;12.13;;;30.40;31.90;;;;;;5058907;28;20197;-48
2023/06/05 09:47:26;;;;;;;13.20;12.60;;;30.80;28.90;;;;;;5058780;28;20427;-45
2023/06/05 09:49:51;;;;;;;12.97;12.37;;;30.60;27.90;;;;;;5059093;28;20771;-45
2023/06/05 09:52:17;;;;;;;12.43;11.73;;;30.90;29.00;;;;;;5057861;28;20365;-45
2023/06/05 09:54:44;;;;;;;12.57;11.87;;;31.20;26.80;;;;;;5058059;28;20196;-48
2023/06/05 09:57:12;;;;;;;12.37;11.80;;;31.50;25.80;;;;;;5058536;28;20638;-47
2023/06/05 09:59:53;;;;;;;12.90;12.30;;;32.20;25.50;;;;;;5058558;28;20434;-44
2023/06/05 10:02:27;;;;;;;11.77;11.27;;;32.70;24.30;;;;;;5057429;28;20416;-44
2023/06/05 10:05:00;;;;;;;12.67;11.90;;;32.70;23.30;;;;;;5058045;28;20407;-46
2023/06/05 10:07:27;;;;;;;12.07;11.47;;;32.70;23.90;;;;;;5057722;28;20423;-47
2023/06/05 10:09:54;;;;;;;12.63;11.93;;;33.00;23.80;;;;;;5061097;28;20601;-47
2023/06/05 10:12:20;;;;;;;13.00;12.20;;;33.00;23.30;;;;;;5061575;28;20972;-47
2023/06/05 10:14:47;;;;;;;12.47;11.87;;;32.90;22.60;;;;;;5061755;28;20419;-44
2023/06/05 10:17:14;;;;;;;12.43;11.77;;;32.70;22.20;;;;;;5062375;28;20419;-46
2023/06/05 10:19:44;;;;;;;11.37;10.87;;;32.60;22.60;;;;;;5062475;28;20782;-44
2023/06/05 10:22:11;;;;;;;10.63;10.03;;;32.30;22.60;;;;;;5061279;28;20533;-46
2023/06/05 10:24:43;;;;;;;11.43;10.73;;;31.80;22.40;;;;;;5060872;28;20482;-44
2023/06/05 10:27:16;;;;;;;11.10;10.60;;;31.80;23.30;;;;;;5061453;28;20415;-44
2023/06/05 10:30:03;;;;;;;10.80;10.27;;;32.30;23.50;;;;;;5061593;28;20422;-49
2023/06/05 10:32:29;;;;;;;10.70;10.10;;;33.20;22.40;;;;;;5061530;28;20522;-44
2023/06/05 10:34:58;;;;;;;13.10;12.40;;;34.20;21.30;;;;;;5062135;28;20425;-48
2023/06/05 10:37:31;;;;;;;11.70;11.20;;;34.70;19.80;;;;;;5061641;28;20205;-48
2023/06/05 10:39:57;;;;;;;11.80;11.20;;;34.60;18.70;;;;;;5061947;28;20760;-44
2023/06/05 10:42:27;;;;;;;11.80;11.10;;;34.30;18.70;;;;;;5061249;28;20469;-45
2023/06/05 10:44:53;;;;;;;13.23;12.47;;;34.20;17.70;;;;;;5061599;28;20444;-43
2023/06/05 10:47:34;;;;;;;13.17;12.57;;;33.70;18.10;;;;;;5061654;28;20422;-45
2023/06/05 10:50:21;;;;;;;12.87;12.17;;;33.40;19.20;;;;;;5061389;28;21248;-43
2023/06/05 10:52:48;;;;;;;11.73;11.23;;;33.10;19.10;;;;;;5059769;28;20777;-46
2023/06/05 10:55:17;;;;;;;11.20;10.70;;;32.70;20.00;;;;;;5060420;28;20515;-48
2023/06/05 10:58:01;;;;;;;12.17;11.57;;;32.70;19.60;;;;;;5059601;28;20546;-43
2023/06/05 11:00:30;;;;;;;11.80;11.20;;;32.50;19.50;;;;;;5060846;28;20427;-42
2023/06/05 11:02:56;;;;;;;11.67;11.17;;;32.40;19.10;;;;;;5060442;28;20778;-44
2023/06/05 11:05:22;;;;;;;13.77;13.07;;;32.80;19.70;;;;;;5061464;28;20423;-48
2023/06/05 11:08:08;;;;;;;13.70;13.10;;;33.30;18.90;;;;;;5043305;28;20430;-45
2023/06/05 11:10:34;;;;;;;12.80;12.20;;;33.80;18.60;;;;;;5061056;28;20362;-44
2023/06/05 11:13:01;;;;;;;12.57;11.87;;;34.40;17.40;;;;;;5061026;28;20511;-45
2023/06/05 11:15:38;;;;;;;12.87;12.33;;;34.50;17.50;;;;;;5059130;28;20435;-47
2023/06/05 11:18:26;;;;;;;11.90;11.30;;;34.30;16.70;;;;;;5060654;28;20465;-43
2023/06/05 11:20:52;;;;;;;12.37;11.77;;;34.10;17.30;;;;;;5060043;28;20461;-48
2023/06/05 11:23:17;;;;;;;12.47;11.87;;;34.20;17.20;;;;;;5061333;28;20968;-44
2023/06/05 11:25:44;;;;;;;11.57;10.97;;;33.80;16.80;;;;;;5061042;28;21138;-46
2023/06/05 11:28:11;;;;;;;11.33;10.73;;;33.70;17.00;;;;;;5059912;28;20188;-44
2023/06/05 11:30:45;;;;;;;11.80;11.30;;;33.80;17.10;;;;;;5042397;28;20907;-43
2023/06/05 11:33:14;;;;;;;12.60;12.00;;;34.20;16.90;;;;;;5059459;28;20438;-46
2023/06/05 11:35:42;;;;;;;12.77;12.17;;;34.20;15.20;;;;;;5060609;28;20411;-43
2023/06/05 11:38:10;;;;;;;11.80;11.20;;;34.10;15.80;;;;;;5060789;28;20466;-46
2023/06/05 11:40:37;;;;;;;12.73;12.13;;;33.90;15.80;;;;;;5042933;28;20438;-44
2023/06/05 11:43:04;;;;;;;11.80;11.00;;;34.10;15.90;;;;;;5060808;28;20430;-45
2023/06/05 11:45:29;;;;;;;12.20;11.70;;;33.60;16.30;;;;;;5060034;28;20450;-47
2023/06/05 11:48:12;;;;;;;12.20;11.70;;;33.40;17.00;;;;;;5060445;28;20415;-44
2023/06/05 11:50:39;;;;;;;11.50;11.00;;;33.60;17.10;;;;;;5060707;28;20927;-46
2023/06/05 11:53:11;;;;;;;11.10;10.60;;;33.80;16.80;;;;;;5060620;28;20530;-46
2023/06/05 11:55:54;;;;;;;11.80;11.30;;;34.50;16.30;;;;;;5060402;28;20417;-45
2023/06/05 11:58:27;;;;;;;11.20;10.60;;;35.20;15.70;;;;;;5060812;28;20474;-45
2023/06/05 12:01:06;;;;;;;10.70;10.20;;;36.20;14.70;;;;;;5060251;28;20913;-48
2023/06/05 12:03:33;;;;;;;11.17;10.67;;;36.60;14.20;;;;;;5060513;28;20545;-46
2023/06/05 12:06:02;;;;;;;12.10;11.50;;;37.00;13.70;;;;;;5060723;28;20412;-44
2023/06/05 12:08:30;;;;;;;11.23;10.63;;;37.00;13.60;;;;;;5060123;28;20419;-47
2023/06/05 12:10:59;;;;;;;11.27;10.67;;;37.60;13.00;;;;;;5060063;28;20840;-46
2023/06/05 12:13:46;;;;;;;12.17;11.67;;;38.10;12.80;;;;;;5059830;28;20411;-45
2023/06/05 12:16:12;;;;;;;12.37;11.77;;;38.40;11.50;;;;;;5060371;28;20410;-43
2023/06/05 12:18:37;;;;;;;11.60;10.90;;;38.00;11.70;;;;;;5059838;28;20537;-45
2023/06/05 12:21:05;;;;;;;11.30;10.80;;;37.30;11.40;;;;;;5060443;28;20185;-46
2023/06/05 12:23:31;;;;;;;11.87;11.27;;;36.60;12.90;;;;;;5059736;28;20257;-45
2023/06/05 12:26:04;;;;;;;11.73;11.13;;;35.50;12.80;;;;;;5060262;28;20933;-45
2023/06/05 12:28:31;;;;;;;11.20;10.70;;;34.50;14.50;;;;;;5059784;28;20424;-43
2023/06/05 12:30:57;;;;;;;11.77;11.27;;;34.70;15.20;;;;;;5060234;28;20418;-45
2023/06/05 12:33:24;;;;;;;12.30;11.70;;;35.30;14.80;;;;;;5058500;28;20439;-43
2023/06/05 12:36:06;;;;;;;12.13;11.53;;;35.80;13.70;;;;;;5059720;28;20783;-45